sensor_id;sensor_type;location;lat;lon;timestamp;temperature;humidity
43183;DHT22;28802;38.578;-0.066;2023-04-29T00:00:02;21.00;99.90
43183;DHT22;28802;38.578;-0.066;2023-04-29T00:02:37;21.10;99.90
43183;DHT22;28802;38.578;-0.066;2023-04-29T00:05:03;21.10;99.90
43183;DHT22;28802;38.578;-0.066;2023-04-29T00:07:32;21.00;99.90
43183;DHT22;28802;38.578;-0.066;2023-04-29T00:09:58;20.90;99.90
43183;DHT22;28802;38.578;-0.066;2023-04-29T00:12:25;20.90;99.90
43183;DHT22;28802;38.578;-0.066;2023-04-29T00:14:51;20.90;99.90
43183;DHT22;28802;38.578;-0.066;2023-04-29T00:17:16;20.90;99.90
43183;DHT22;28802;38.578;-0.066;2023-04-29T00:19:43;21.00;99.90
43183;DHT22;28802;38.578;-0.066;2023-04-29T00:22:09;20.90;99.90
43183;DHT22;28802;38.578;-0.066;2023-04-29T00:24:35;21.20;99.90
43183;DHT22;28802;38.578;-0.066;2023-04-29T00:27:01;21.10;99.90
43183;DHT22;28802;38.578;-0.066;2023-04-29T00:29:27;21.10;99.90
43183;DHT22;28802;38.578;-0.066;2023-04-29T00:31:53;21.10;99.90
43183;DHT22;28802;38.578;-0.066;2023-04-29T00:34:19;21.30;99.90
43183;DHT22;28802;38.578;-0.066;2023-04-29T00:36:45;21.20;99.90
43183;DHT22;28802;38.578;-0.066;2023-04-29T00:39:11;21.10;99.90
43183;DHT22;28802;38.578;-0.066;2023-04-29T00:41:38;21.20;99.90
43183;DHT22;28802;38.578;-0.066;2023-04-29T00:44:04;21.10;99.90
43183;DHT22;28802;38.578;-0.066;2023-04-29T00:46:30;21.20;99.90
43183;DHT22;28802;38.578;-0.066;2023-04-29T00:48:56;21.50;99.90
43183;DHT22;28802;38.578;-0.066;2023-04-29T00:51:22;21.50;99.90
43183;DHT22;28802;38.578;-0.066;2023-04-29T00:53:49;21.60;99.90
43183;DHT22;28802;38.578;-0.066;2023-04-29T00:56:15;21.50;99.90
43183;DHT22;28802;38.578;-0.066;2023-04-29T00:58:43;21.30;99.90
43183;DHT22;28802;38.578;-0.066;2023-04-29T01:01:15;21.40;99.90
43183;DHT22;28802;38.578;-0.066;2023-04-29T01:03:41;21.20;99.90
43183;DHT22;28802;38.578;-0.066;2023-04-29T01:08:56;21.10;99.90
43183;DHT22;28802;38.578;-0.066;2023-04-29T01:11:34;21.10;99.90
43183;DHT22;28802;38.578;-0.066;2023-04-29T01:14:01;21.00;99.90
43183;DHT22;28802;38.578;-0.066;2023-04-29T01:16:44;21.10;99.90
43183;DHT22;28802;38.578;-0.066;2023-04-29T01:19:38;21.10;99.90
43183;DHT22;28802;38.578;-0.066;2023-04-29T01:22:05;21.00;99.90
43183;DHT22;28802;38.578;-0.066;2023-04-29T01:24:31;21.10;99.90
43183;DHT22;28802;38.578;-0.066;2023-04-29T01:27:31;21.20;99.90
43183;DHT22;28802;38.578;-0.066;2023-04-29T01:33:02;20.90;99.90
43183;DHT22;28802;38.578;-0.066;2023-04-29T01:38:52;21.00;99.90
43183;DHT22;28802;38.578;-0.066;2023-04-29T01:41:45;21.00;99.90
43183;DHT22;28802;38.578;-0.066;2023-04-29T01:44:28;20.90;99.90
43183;DHT22;28802;38.578;-0.066;2023-04-29T01:46:54;20.80;99.90
43183;DHT22;28802;38.578;-0.066;2023-04-29T01:49:27;20.70;99.90
43183;DHT22;28802;38.578;-0.066;2023-04-29T01:51:54;20.80;99.90
43183;DHT22;28802;38.578;-0.066;2023-04-29T01:54:20;20.80;99.90
43183;DHT22;28802;38.578;-0.066;2023-04-29T01:56:49;20.90;99.90
43183;DHT22;28802;38.578;-0.066;2023-04-29T01:59:30;20.90;99.90
43183;DHT22;28802;38.578;-0.066;2023-04-29T02:02:14;21.00;99.90
43183;DHT22;28802;38.578;-0.066;2023-04-29T02:04:51;21.10;99.90
43183;DHT22;28802;38.578;-0.066;2023-04-29T02:07:17;21.10;99.90
43183;DHT22;28802;38.578;-0.066;2023-04-29T02:09:45;21.20;99.90
43183;DHT22;28802;38.578;-0.066;2023-04-29T02:12:11;21.20;99.90
43183;DHT22;28802;38.578;-0.066;2023-04-29T02:14:37;21.30;99.90
43183;DHT22;28802;38.578;-0.066;2023-04-29T02:17:04;21.30;99.90
43183;DHT22;28802;38.578;-0.066;2023-04-29T02:19:31;21.30;99.90
43183;DHT22;28802;38.578;-0.066;2023-04-29T02:21:57;21.30;99.90
43183;DHT22;28802;38.578;-0.066;2023-04-29T02:24:24;21.30;99.90
43183;DHT22;28802;38.578;-0.066;2023-04-29T02:26:50;21.40;99.90
43183;DHT22;28802;38.578;-0.066;2023-04-29T02:29:16;21.40;99.90
43183;DHT22;28802;38.578;-0.066;2023-04-29T02:31:43;21.60;99.90
43183;DHT22;28802;38.578;-0.066;2023-04-29T02:34:09;21.60;99.90
43183;DHT22;28802;38.578;-0.066;2023-04-29T02:36:35;21.60;99.90
43183;DHT22;28802;38.578;-0.066;2023-04-29T02:39:01;21.70;99.90
43183;DHT22;28802;38.578;-0.066;2023-04-29T02:41:27;21.70;99.90
43183;DHT22;28802;38.578;-0.066;2023-04-29T02:43:53;21.60;99.90
43183;DHT22;28802;38.578;-0.066;2023-04-29T02:46:19;21.70;99.90
43183;DHT22;28802;38.578;-0.066;2023-04-29T02:48:45;22.00;99.90
43183;DHT22;28802;38.578;-0.066;2023-04-29T02:51:11;22.10;99.90
43183;DHT22;28802;38.578;-0.066;2023-04-29T02:53:37;22.20;99.90
43183;DHT22;28802;38.578;-0.066;2023-04-29T02:56:03;22.30;99.90
43183;DHT22;28802;38.578;-0.066;2023-04-29T02:58:30;22.10;99.90
43183;DHT22;28802;38.578;-0.066;2023-04-29T03:00:56;22.10;99.90
43183;DHT22;28802;38.578;-0.066;2023-04-29T03:03:21;22.00;99.90
43183;DHT22;28802;38.578;-0.066;2023-04-29T03:05:48;22.10;99.90
43183;DHT22;28802;38.578;-0.066;2023-04-29T03:08:14;22.10;99.90
43183;DHT22;28802;38.578;-0.066;2023-04-29T03:10:40;22.20;99.90
43183;DHT22;28802;38.578;-0.066;2023-04-29T03:13:07;22.30;99.90
43183;DHT22;28802;38.578;-0.066;2023-04-29T03:15:33;22.20;99.90
43183;DHT22;28802;38.578;-0.066;2023-04-29T03:17:59;22.20;99.90
43183;DHT22;28802;38.578;-0.066;2023-04-29T03:20:28;22.20;99.90
43183;DHT22;28802;38.578;-0.066;2023-04-29T03:22:54;22.40;99.90
43183;DHT22;28802;38.578;-0.066;2023-04-29T03:25:20;22.80;99.90
43183;DHT22;28802;38.578;-0.066;2023-04-29T03:27:46;22.90;99.90
43183;DHT22;28802;38.578;-0.066;2023-04-29T03:30:12;22.80;99.90
43183;DHT22;28802;38.578;-0.066;2023-04-29T03:32:45;22.80;99.90
43183;DHT22;28802;38.578;-0.066;2023-04-29T03:35:11;23.10;99.90
43183;DHT22;28802;38.578;-0.066;2023-04-29T03:37:57;23.10;99.90
43183;DHT22;28802;38.578;-0.066;2023-04-29T03:40:28;23.10;99.90
43183;DHT22;28802;38.578;-0.066;2023-04-29T03:42:54;23.00;99.90
43183;DHT22;28802;38.578;-0.066;2023-04-29T03:45:20;23.30;99.90
43183;DHT22;28802;38.578;-0.066;2023-04-29T03:47:46;23.80;99.90
43183;DHT22;28802;38.578;-0.066;2023-04-29T03:50:11;23.80;99.90
43183;DHT22;28802;38.578;-0.066;2023-04-29T03:52:39;23.80;99.90
43183;DHT22;28802;38.578;-0.066;2023-04-29T03:55:11;23.80;99.90
43183;DHT22;28802;38.578;-0.066;2023-04-29T03:57:38;23.80;99.90
43183;DHT22;28802;38.578;-0.066;2023-04-29T04:00:04;23.70;99.90
43183;DHT22;28802;38.578;-0.066;2023-04-29T04:02:39;23.40;99.90
43183;DHT22;28802;38.578;-0.066;2023-04-29T04:05:05;23.30;99.90
43183;DHT22;28802;38.578;-0.066;2023-04-29T04:07:31;22.90;99.90
43183;DHT22;28802;38.578;-0.066;2023-04-29T04:10:23;22.80;99.90
43183;DHT22;28802;38.578;-0.066;2023-04-29T04:12:50;22.60;99.90
43183;DHT22;28802;38.578;-0.066;2023-04-29T04:15:16;22.30;99.90
43183;DHT22;28802;38.578;-0.066;2023-04-29T04:17:42;22.20;99.90
43183;DHT22;28802;38.578;-0.066;2023-04-29T04:20:09;22.20;99.90
43183;DHT22;28802;38.578;-0.066;2023-04-29T04:22:35;22.10;99.90
43183;DHT22;28802;38.578;-0.066;2023-04-29T04:25:23;21.90;99.90
43183;DHT22;28802;38.578;-0.066;2023-04-29T04:27:50;21.70;99.90
43183;DHT22;28802;38.578;-0.066;2023-04-29T04:30:36;21.60;99.90
43183;DHT22;28802;38.578;-0.066;2023-04-29T04:33:02;21.50;99.90
43183;DHT22;28802;38.578;-0.066;2023-04-29T04:35:29;21.40;99.90
43183;DHT22;28802;38.578;-0.066;2023-04-29T04:37:56;21.30;99.90
43183;DHT22;28802;38.578;-0.066;2023-04-29T04:40:22;21.20;99.90
43183;DHT22;28802;38.578;-0.066;2023-04-29T04:43:18;21.20;99.90
43183;DHT22;28802;38.578;-0.066;2023-04-29T04:45:45;21.10;99.90
43183;DHT22;28802;38.578;-0.066;2023-04-29T04:48:11;21.00;99.90
43183;DHT22;28802;38.578;-0.066;2023-04-29T04:50:38;21.00;99.90
43183;DHT22;28802;38.578;-0.066;2023-04-29T04:53:04;20.90;99.90
43183;DHT22;28802;38.578;-0.066;2023-04-29T04:55:43;20.90;99.90
43183;DHT22;28802;38.578;-0.066;2023-04-29T04:58:09;20.90;99.90
43183;DHT22;28802;38.578;-0.066;2023-04-29T05:00:36;20.90;99.90
43183;DHT22;28802;38.578;-0.066;2023-04-29T05:03:03;20.90;99.90
43183;DHT22;28802;38.578;-0.066;2023-04-29T05:05:29;20.90;99.90
43183;DHT22;28802;38.578;-0.066;2023-04-29T05:07:55;20.90;99.90
43183;DHT22;28802;38.578;-0.066;2023-04-29T05:10:28;20.90;99.90
43183;DHT22;28802;38.578;-0.066;2023-04-29T05:12:58;21.00;99.90
43183;DHT22;28802;38.578;-0.066;2023-04-29T05:15:24;21.10;99.90
43183;DHT22;28802;38.578;-0.066;2023-04-29T05:17:54;21.20;99.90
43183;DHT22;28802;38.578;-0.066;2023-04-29T05:20:20;21.20;99.90
43183;DHT22;28802;38.578;-0.066;2023-04-29T05:22:46;21.30;99.90
43183;DHT22;28802;38.578;-0.066;2023-04-29T05:25:13;21.20;99.90
43183;DHT22;28802;38.578;-0.066;2023-04-29T05:27:39;21.30;99.90
43183;DHT22;28802;38.578;-0.066;2023-04-29T05:30:09;21.30;99.90
43183;DHT22;28802;38.578;-0.066;2023-04-29T05:32:35;21.30;99.90
43183;DHT22;28802;38.578;-0.066;2023-04-29T05:35:02;21.30;99.90
43183;DHT22;28802;38.578;-0.066;2023-04-29T05:37:28;21.30;99.90
43183;DHT22;28802;38.578;-0.066;2023-04-29T05:40:04;21.30;99.90
43183;DHT22;28802;38.578;-0.066;2023-04-29T05:42:32;21.30;99.90
43183;DHT22;28802;38.578;-0.066;2023-04-29T05:44:58;21.30;99.90
43183;DHT22;28802;38.578;-0.066;2023-04-29T05:47:24;21.30;99.90
43183;DHT22;28802;38.578;-0.066;2023-04-29T05:49:50;21.40;99.90
43183;DHT22;28802;38.578;-0.066;2023-04-29T05:52:16;21.50;99.90
43183;DHT22;28802;38.578;-0.066;2023-04-29T05:54:45;21.50;99.90
43183;DHT22;28802;38.578;-0.066;2023-04-29T05:57:11;21.70;99.90
43183;DHT22;28802;38.578;-0.066;2023-04-29T05:59:39;21.70;99.90
43183;DHT22;28802;38.578;-0.066;2023-04-29T06:02:05;21.80;99.90
43183;DHT22;28802;38.578;-0.066;2023-04-29T06:04:32;22.00;99.90
43183;DHT22;28802;38.578;-0.066;2023-04-29T06:07:17;22.00;99.90
43183;DHT22;28802;38.578;-0.066;2023-04-29T06:09:54;22.30;99.90
43183;DHT22;28802;38.578;-0.066;2023-04-29T06:12:20;22.40;99.90
43183;DHT22;28802;38.578;-0.066;2023-04-29T06:14:47;22.50;99.90
43183;DHT22;28802;38.578;-0.066;2023-04-29T06:17:12;22.80;99.90
43183;DHT22;28802;38.578;-0.066;2023-04-29T06:19:39;23.10;99.90
43183;DHT22;28802;38.578;-0.066;2023-04-29T06:22:08;23.60;99.90
43183;DHT22;28802;38.578;-0.066;2023-04-29T06:24:34;23.80;99.90
43183;DHT22;28802;38.578;-0.066;2023-04-29T06:27:00;24.10;99.90
43183;DHT22;28802;38.578;-0.066;2023-04-29T06:29:29;24.30;99.90
43183;DHT22;28802;38.578;-0.066;2023-04-29T06:31:55;24.50;99.90
43183;DHT22;28802;38.578;-0.066;2023-04-29T06:34:21;24.50;99.90
43183;DHT22;28802;38.578;-0.066;2023-04-29T06:37:07;24.40;99.90
43183;DHT22;28802;38.578;-0.066;2023-04-29T06:39:49;24.30;99.90
43183;DHT22;28802;38.578;-0.066;2023-04-29T06:42:54;24.10;99.90
43183;DHT22;28802;38.578;-0.066;2023-04-29T06:45:40;24.00;99.90
43183;DHT22;28802;38.578;-0.066;2023-04-29T06:48:15;23.70;99.90
43183;DHT22;28802;38.578;-0.066;2023-04-29T06:50:53;23.40;99.90
43183;DHT22;28802;38.578;-0.066;2023-04-29T06:53:20;23.10;99.90
43183;DHT22;28802;38.578;-0.066;2023-04-29T06:55:46;23.00;99.90
43183;DHT22;28802;38.578;-0.066;2023-04-29T06:58:13;23.20;99.90
43183;DHT22;28802;38.578;-0.066;2023-04-29T07:00:39;23.40;99.90
43183;DHT22;28802;38.578;-0.066;2023-04-29T07:03:05;23.30;99.90
43183;DHT22;28802;38.578;-0.066;2023-04-29T07:05:31;23.20;99.90
43183;DHT22;28802;38.578;-0.066;2023-04-29T07:07:57;22.90;99.90
43183;DHT22;28802;38.578;-0.066;2023-04-29T07:10:24;22.60;99.90
43183;DHT22;28802;38.578;-0.066;2023-04-29T07:12:53;22.70;99.90
43183;DHT22;28802;38.578;-0.066;2023-04-29T07:15:20;23.10;99.90
43183;DHT22;28802;38.578;-0.066;2023-04-29T07:17:46;23.40;99.90
43183;DHT22;28802;38.578;-0.066;2023-04-29T07:20:13;23.80;99.90
43183;DHT22;28802;38.578;-0.066;2023-04-29T07:22:39;24.10;99.90
43183;DHT22;28802;38.578;-0.066;2023-04-29T07:25:05;24.10;99.90
43183;DHT22;28802;38.578;-0.066;2023-04-29T07:27:33;24.00;99.90
43183;DHT22;28802;38.578;-0.066;2023-04-29T07:30:00;23.60;99.90
43183;DHT22;28802;38.578;-0.066;2023-04-29T07:32:26;23.40;99.90
43183;DHT22;28802;38.578;-0.066;2023-04-29T07:34:53;23.50;99.90
43183;DHT22;28802;38.578;-0.066;2023-04-29T07:37:20;24.30;99.90
43183;DHT22;28802;38.578;-0.066;2023-04-29T07:39:47;25.90;99.90
43183;DHT22;28802;38.578;-0.066;2023-04-29T07:42:13;26.50;99.90
43183;DHT22;28802;38.578;-0.066;2023-04-29T07:44:40;27.40;99.90
43183;DHT22;28802;38.578;-0.066;2023-04-29T07:47:07;27.80;99.90
43183;DHT22;28802;38.578;-0.066;2023-04-29T07:49:33;27.90;99.90
43183;DHT22;28802;38.578;-0.066;2023-04-29T07:52:00;28.50;99.90
43183;DHT22;28802;38.578;-0.066;2023-04-29T07:54:26;29.70;99.90
43183;DHT22;28802;38.578;-0.066;2023-04-29T07:56:52;29.90;99.90
43183;DHT22;28802;38.578;-0.066;2023-04-29T07:59:19;29.60;99.90
43183;DHT22;28802;38.578;-0.066;2023-04-29T08:01:45;29.90;99.90
43183;DHT22;28802;38.578;-0.066;2023-04-29T08:04:11;30.50;99.90
43183;DHT22;28802;38.578;-0.066;2023-04-29T08:06:46;30.90;99.90
43183;DHT22;28802;38.578;-0.066;2023-04-29T08:09:13;31.00;99.90
43183;DHT22;28802;38.578;-0.066;2023-04-29T08:11:41;31.50;99.90
43183;DHT22;28802;38.578;-0.066;2023-04-29T08:14:10;31.80;99.90
43183;DHT22;28802;38.578;-0.066;2023-04-29T08:16:37;31.70;99.90
43183;DHT22;28802;38.578;-0.066;2023-04-29T08:19:03;31.70;99.90
43183;DHT22;28802;38.578;-0.066;2023-04-29T08:21:29;31.80;99.90
43183;DHT22;28802;38.578;-0.066;2023-04-29T08:23:57;32.60;99.90
43183;DHT22;28802;38.578;-0.066;2023-04-29T08:26:22;32.80;99.90
43183;DHT22;28802;38.578;-0.066;2023-04-29T08:28:48;32.20;99.90
43183;DHT22;28802;38.578;-0.066;2023-04-29T08:31:19;32.20;99.90
43183;DHT22;28802;38.578;-0.066;2023-04-29T08:33:45;32.40;99.90
43183;DHT22;28802;38.578;-0.066;2023-04-29T08:36:11;32.20;99.90
43183;DHT22;28802;38.578;-0.066;2023-04-29T08:38:37;32.70;99.90
43183;DHT22;28802;38.578;-0.066;2023-04-29T08:41:03;32.80;99.90
43183;DHT22;28802;38.578;-0.066;2023-04-29T08:43:29;32.90;99.90
43183;DHT22;28802;38.578;-0.066;2023-04-29T08:45:57;32.70;99.90
43183;DHT22;28802;38.578;-0.066;2023-04-29T08:48:24;32.20;99.90
43183;DHT22;28802;38.578;-0.066;2023-04-29T08:50:51;31.60;99.90
43183;DHT22;28802;38.578;-0.066;2023-04-29T08:53:17;30.50;99.90
43183;DHT22;28802;38.578;-0.066;2023-04-29T08:55:47;30.60;99.90
43183;DHT22;28802;38.578;-0.066;2023-04-29T08:58:14;30.80;99.90
43183;DHT22;28802;38.578;-0.066;2023-04-29T09:00:44;30.90;99.90
43183;DHT22;28802;38.578;-0.066;2023-04-29T09:03:30;30.60;99.90
43183;DHT22;28802;38.578;-0.066;2023-04-29T09:05:59;30.60;99.90
43183;DHT22;28802;38.578;-0.066;2023-04-29T09:08:26;30.40;99.90
43183;DHT22;28802;38.578;-0.066;2023-04-29T09:10:54;30.30;99.90
43183;DHT22;28802;38.578;-0.066;2023-04-29T09:13:31;30.10;99.90
43183;DHT22;28802;38.578;-0.066;2023-04-29T09:15:57;29.80;99.90
43183;DHT22;28802;38.578;-0.066;2023-04-29T09:21:16;28.50;99.90
43183;DHT22;28802;38.578;-0.066;2023-04-29T09:23:42;28.40;99.90
43183;DHT22;28802;38.578;-0.066;2023-04-29T09:26:08;28.00;99.90
43183;DHT22;28802;38.578;-0.066;2023-04-29T09:28:34;27.70;99.90
43183;DHT22;28802;38.578;-0.066;2023-04-29T09:31:03;27.40;99.90
43183;DHT22;28802;38.578;-0.066;2023-04-29T09:33:31;27.30;99.90
43183;DHT22;28802;38.578;-0.066;2023-04-29T09:35:57;27.00;99.90
43183;DHT22;28802;38.578;-0.066;2023-04-29T09:38:23;26.70;99.90
43183;DHT22;28802;38.578;-0.066;2023-04-29T09:40:49;26.70;99.90
43183;DHT22;28802;38.578;-0.066;2023-04-29T09:43:18;26.90;99.90
43183;DHT22;28802;38.578;-0.066;2023-04-29T09:45:46;26.80;99.90
43183;DHT22;28802;38.578;-0.066;2023-04-29T09:48:12;26.80;99.90
43183;DHT22;28802;38.578;-0.066;2023-04-29T09:50:40;26.80;99.90
43183;DHT22;28802;38.578;-0.066;2023-04-29T09:53:07;27.00;99.90
43183;DHT22;28802;38.578;-0.066;2023-04-29T09:56:00;27.00;99.90
43183;DHT22;28802;38.578;-0.066;2023-04-29T09:58:28;26.80;99.90
43183;DHT22;28802;38.578;-0.066;2023-04-29T10:00:58;27.00;99.90
43183;DHT22;28802;38.578;-0.066;2023-04-29T10:03:34;27.70;99.90
43183;DHT22;28802;38.578;-0.066;2023-04-29T10:06:01;29.00;99.90
43183;DHT22;28802;38.578;-0.066;2023-04-29T10:08:31;29.50;99.90
43183;DHT22;28802;38.578;-0.066;2023-04-29T10:11:04;29.70;99.90
43183;DHT22;28802;38.578;-0.066;2023-04-29T10:13:30;29.70;99.90
43183;DHT22;28802;38.578;-0.066;2023-04-29T10:16:14;29.30;99.90
43183;DHT22;28802;38.578;-0.066;2023-04-29T10:18:52;29.20;99.90
43183;DHT22;28802;38.578;-0.066;2023-04-29T10:21:25;29.40;99.90
43183;DHT22;28802;38.578;-0.066;2023-04-29T10:23:53;29.90;99.90
43183;DHT22;28802;38.578;-0.066;2023-04-29T10:26:19;30.70;99.90
43183;DHT22;28802;38.578;-0.066;2023-04-29T10:28:46;31.10;99.90
43183;DHT22;28802;38.578;-0.066;2023-04-29T10:31:16;31.40;99.90
43183;DHT22;28802;38.578;-0.066;2023-04-29T10:33:43;30.70;99.90
43183;DHT22;28802;38.578;-0.066;2023-04-29T10:36:11;31.00;99.90
43183;DHT22;28802;38.578;-0.066;2023-04-29T10:38:44;31.70;99.90
43183;DHT22;28802;38.578;-0.066;2023-04-29T10:41:22;32.40;99.90
43183;DHT22;28802;38.578;-0.066;2023-04-29T10:43:51;32.10;99.90
43183;DHT22;28802;38.578;-0.066;2023-04-29T10:46:20;31.10;99.90
43183;DHT22;28802;38.578;-0.066;2023-04-29T10:48:48;30.20;99.90
43183;DHT22;28802;38.578;-0.066;2023-04-29T10:54:14;30.10;99.90
43183;DHT22;28802;38.578;-0.066;2023-04-29T10:56:48;29.80;99.90
43183;DHT22;28802;38.578;-0.066;2023-04-29T11:01:58;28.90;99.90
43183;DHT22;28802;38.578;-0.066;2023-04-29T11:04:24;28.60;99.90
43183;DHT22;28802;38.578;-0.066;2023-04-29T11:06:55;28.30;99.90
43183;DHT22;28802;38.578;-0.066;2023-04-29T11:09:26;28.20;99.90
43183;DHT22;28802;38.578;-0.066;2023-04-29T11:12:01;28.30;99.90
43183;DHT22;28802;38.578;-0.066;2023-04-29T11:17:09;28.30;99.90
43183;DHT22;28802;38.578;-0.066;2023-04-29T11:19:43;28.60;99.90
43183;DHT22;28802;38.578;-0.066;2023-04-29T11:24:58;29.30;99.90
43183;DHT22;28802;38.578;-0.066;2023-04-29T11:27:38;29.80;99.90
43183;DHT22;28802;38.578;-0.066;2023-04-29T11:30:06;30.20;99.90
43183;DHT22;28802;38.578;-0.066;2023-04-29T11:32:37;30.70;99.90
43183;DHT22;28802;38.578;-0.066;2023-04-29T11:35:14;31.50;99.90
43183;DHT22;28802;38.578;-0.066;2023-04-29T11:37:42;32.00;99.90
43183;DHT22;28802;38.578;-0.066;2023-04-29T11:40:09;32.90;99.90
43183;DHT22;28802;38.578;-0.066;2023-04-29T11:42:56;30.70;99.90
43183;DHT22;28802;38.578;-0.066;2023-04-29T11:45:23;29.00;99.90
43183;DHT22;28802;38.578;-0.066;2023-04-29T11:47:49;27.70;99.90
43183;DHT22;28802;38.578;-0.066;2023-04-29T11:50:16;27.50;99.90
43183;DHT22;28802;38.578;-0.066;2023-04-29T11:52:46;26.50;99.90
43183;DHT22;28802;38.578;-0.066;2023-04-29T11:55:12;26.60;99.90
43183;DHT22;28802;38.578;-0.066;2023-04-29T11:57:39;26.80;99.90
43183;DHT22;28802;38.578;-0.066;2023-04-29T12:00:09;26.60;99.90
43183;DHT22;28802;38.578;-0.066;2023-04-29T12:02:42;26.00;99.90
43183;DHT22;28802;38.578;-0.066;2023-04-29T12:05:08;26.00;99.90
43183;DHT22;28802;38.578;-0.066;2023-04-29T12:07:34;26.10;99.90
43183;DHT22;28802;38.578;-0.066;2023-04-29T12:10:01;26.00;99.90
43183;DHT22;28802;38.578;-0.066;2023-04-29T12:12:27;26.40;99.90
43183;DHT22;28802;38.578;-0.066;2023-04-29T12:14:54;26.90;99.90
43183;DHT22;28802;38.578;-0.066;2023-04-29T12:17:20;27.50;99.90
43183;DHT22;28802;38.578;-0.066;2023-04-29T12:19:46;26.80;99.90
43183;DHT22;28802;38.578;-0.066;2023-04-29T12:22:13;26.70;99.90
43183;DHT22;28802;38.578;-0.066;2023-04-29T12:24:39;26.90;99.90
43183;DHT22;28802;38.578;-0.066;2023-04-29T12:27:09;26.70;99.90
43183;DHT22;28802;38.578;-0.066;2023-04-29T12:29:37;26.70;99.90
43183;DHT22;28802;38.578;-0.066;2023-04-29T12:32:03;26.30;99.90
43183;DHT22;28802;38.578;-0.066;2023-04-29T12:34:30;26.30;99.90
43183;DHT22;28802;38.578;-0.066;2023-04-29T12:36:58;26.20;99.90
43183;DHT22;28802;38.578;-0.066;2023-04-29T12:39:25;26.10;99.90
43183;DHT22;28802;38.578;-0.066;2023-04-29T12:41:56;26.60;99.90
43183;DHT22;28802;38.578;-0.066;2023-04-29T12:44:23;26.90;99.90
43183;DHT22;28802;38.578;-0.066;2023-04-29T12:46:50;27.00;99.90
43183;DHT22;28802;38.578;-0.066;2023-04-29T12:49:17;27.10;99.90
43183;DHT22;28802;38.578;-0.066;2023-04-29T12:51:44;27.60;99.90
43183;DHT22;28802;38.578;-0.066;2023-04-29T12:54:10;27.70;99.90
43183;DHT22;28802;38.578;-0.066;2023-04-29T12:56:37;27.60;99.90
43183;DHT22;28802;38.578;-0.066;2023-04-29T12:59:09;27.70;99.90
43183;DHT22;28802;38.578;-0.066;2023-04-29T13:01:37;27.90;99.90
43183;DHT22;28802;38.578;-0.066;2023-04-29T13:04:04;28.10;99.90
43183;DHT22;28802;38.578;-0.066;2023-04-29T13:06:31;28.60;99.90
43183;DHT22;28802;38.578;-0.066;2023-04-29T13:08:57;28.80;99.90
43183;DHT22;28802;38.578;-0.066;2023-04-29T13:11:23;29.00;99.90
43183;DHT22;28802;38.578;-0.066;2023-04-29T13:13:49;29.10;99.90
43183;DHT22;28802;38.578;-0.066;2023-04-29T13:16:15;28.20;99.90
43183;DHT22;28802;38.578;-0.066;2023-04-29T13:18:41;26.60;99.90
43183;DHT22;28802;38.578;-0.066;2023-04-29T13:21:07;26.30;99.90
43183;DHT22;28802;38.578;-0.066;2023-04-29T13:23:33;26.20;99.90
43183;DHT22;28802;38.578;-0.066;2023-04-29T13:25:59;26.40;99.90
43183;DHT22;28802;38.578;-0.066;2023-04-29T13:28:24;26.60;99.90
43183;DHT22;28802;38.578;-0.066;2023-04-29T13:30:50;26.70;99.90
43183;DHT22;28802;38.578;-0.066;2023-04-29T13:33:17;26.30;99.90
43183;DHT22;28802;38.578;-0.066;2023-04-29T13:35:44;25.90;99.90
43183;DHT22;28802;38.578;-0.066;2023-04-29T13:38:10;25.80;99.90
43183;DHT22;28802;38.578;-0.066;2023-04-29T13:40:36;26.20;99.90
43183;DHT22;28802;38.578;-0.066;2023-04-29T13:43:02;26.60;99.90
43183;DHT22;28802;38.578;-0.066;2023-04-29T13:45:28;27.00;99.90
43183;DHT22;28802;38.578;-0.066;2023-04-29T13:47:54;27.20;99.90
43183;DHT22;28802;38.578;-0.066;2023-04-29T13:50:20;27.20;99.90
43183;DHT22;28802;38.578;-0.066;2023-04-29T13:52:46;27.00;99.90
43183;DHT22;28802;38.578;-0.066;2023-04-29T13:55:12;26.30;99.90
43183;DHT22;28802;38.578;-0.066;2023-04-29T13:57:37;25.80;99.90
43183;DHT22;28802;38.578;-0.066;2023-04-29T14:00:04;25.80;99.90
43183;DHT22;28802;38.578;-0.066;2023-04-29T14:02:37;25.80;99.90
43183;DHT22;28802;38.578;-0.066;2023-04-29T14:05:03;25.70;99.90
43183;DHT22;28802;38.578;-0.066;2023-04-29T14:07:29;25.60;99.90
43183;DHT22;28802;38.578;-0.066;2023-04-29T14:09:55;25.20;99.90
43183;DHT22;28802;38.578;-0.066;2023-04-29T14:12:21;24.50;99.90
43183;DHT22;28802;38.578;-0.066;2023-04-29T14:14:47;24.20;99.90
43183;DHT22;28802;38.578;-0.066;2023-04-29T14:17:13;24.00;99.90
43183;DHT22;28802;38.578;-0.066;2023-04-29T14:19:39;23.70;99.90
43183;DHT22;28802;38.578;-0.066;2023-04-29T14:22:05;23.60;99.90
43183;DHT22;28802;38.578;-0.066;2023-04-29T14:24:31;23.30;99.90
43183;DHT22;28802;38.578;-0.066;2023-04-29T14:26:57;23.30;99.90
43183;DHT22;28802;38.578;-0.066;2023-04-29T14:29:23;23.30;99.90
43183;DHT22;28802;38.578;-0.066;2023-04-29T14:31:49;23.20;99.90
43183;DHT22;28802;38.578;-0.066;2023-04-29T14:34:15;23.10;99.90
43183;DHT22;28802;38.578;-0.066;2023-04-29T14:36:41;23.30;99.90
43183;DHT22;28802;38.578;-0.066;2023-04-29T14:39:07;23.40;99.90
43183;DHT22;28802;38.578;-0.066;2023-04-29T14:41:33;23.30;99.90
43183;DHT22;28802;38.578;-0.066;2023-04-29T14:43:59;23.10;99.90
43183;DHT22;28802;38.578;-0.066;2023-04-29T14:46:25;23.20;99.90
43183;DHT22;28802;38.578;-0.066;2023-04-29T14:48:53;23.30;99.90
43183;DHT22;28802;38.578;-0.066;2023-04-29T14:51:19;23.70;99.90
43183;DHT22;28802;38.578;-0.066;2023-04-29T14:53:45;23.70;99.90
43183;DHT22;28802;38.578;-0.066;2023-04-29T14:56:15;24.00;99.90
43183;DHT22;28802;38.578;-0.066;2023-04-29T14:58:41;24.10;99.90
43183;DHT22;28802;38.578;-0.066;2023-04-29T15:01:07;24.30;99.90
43183;DHT22;28802;38.578;-0.066;2023-04-29T15:03:33;24.60;99.90
43183;DHT22;28802;38.578;-0.066;2023-04-29T15:06:02;25.10;99.90
43183;DHT22;28802;38.578;-0.066;2023-04-29T15:08:29;25.30;99.90
43183;DHT22;28802;38.578;-0.066;2023-04-29T15:10:55;25.40;99.90
43183;DHT22;28802;38.578;-0.066;2023-04-29T15:13:21;25.60;99.90
43183;DHT22;28802;38.578;-0.066;2023-04-29T15:15:48;25.80;99.90
43183;DHT22;28802;38.578;-0.066;2023-04-29T15:18:14;25.90;99.90
43183;DHT22;28802;38.578;-0.066;2023-04-29T15:20:40;26.00;99.90
43183;DHT22;28802;38.578;-0.066;2023-04-29T15:23:06;26.10;99.90
43183;DHT22;28802;38.578;-0.066;2023-04-29T15:25:33;26.30;99.90
43183;DHT22;28802;38.578;-0.066;2023-04-29T15:28:00;26.30;99.90
43183;DHT22;28802;38.578;-0.066;2023-04-29T15:30:26;26.60;99.90
43183;DHT22;28802;38.578;-0.066;2023-04-29T15:32:53;26.30;99.90
43183;DHT22;28802;38.578;-0.066;2023-04-29T15:35:19;25.40;99.90
43183;DHT22;28802;38.578;-0.066;2023-04-29T15:37:45;25.00;99.90
43183;DHT22;28802;38.578;-0.066;2023-04-29T15:40:11;24.80;99.90
43183;DHT22;28802;38.578;-0.066;2023-04-29T15:42:37;24.90;99.90
43183;DHT22;28802;38.578;-0.066;2023-04-29T15:45:03;25.00;99.90